Portada
METAR-TAF:

METAR-TAF

Aeroports :

Ghardaïa, Algèria

latitud: 32-23N, longitud: 003-49E, altitud: 450 m

Observació

L'informe es va fer fa 44 minuts, a les 21:00 UTC
Vent calma
Temperatura 11°C
Humitat 54%
Pressió 1022 hPa
Visibilitat 10 km o més
sense núvols per sota de 1500 mi sense presència de cumulonimbus.

METAR: DAUG 052100Z 00000KT CAVOK 11/02 Q1022

Hora: 22:44 (21:44 UTC)

Pronòstic

L'informe es va fer fa 4 hores i 44 minuts, a les 17:00 UTC
Pronòstic vàlid del 05 a les 18 UTC al 06 a les 18 UTC
Vent 6 kt del Sud-Est
Visibilitat 10 km o més
sense núvols per sota de 1500 mi sense presència de cumulonimbus.
Evolucionant progressivament
l' 05 a les 22 UTC al 06 a les 01 UTC
Vent 10 kt del Est/Nord-Est

TAF: DAUG 051700Z 0518/0618 14006KT CAVOK BECMG 0522/0601 06010KT

Observacions i pronòstics meteorològics de més de 4000 aeroports (METAR i TAF).

Les estacions disponibles són els punts grocs i vermells al mapa.

Posi el ratolí al punt desitjat per veure el nom de l'estació.

Feu clic per veure les observacions i els pronòstics meteorològics.

Per canviar el mapa: feu clic els botons verds amb una creu de color negre per apropar; al botó verd amb un guió per allunyar la imatge; o en les fletxes verdes per a mapes adjacents.


METAR-TAF: